sensor_id;sensor_type;location;lat;lon;timestamp;P1;durP1;ratioP1;P2;durP2;ratioP2
9524;SDS011;15940;48.734;9.112;2023-04-29T00:01:39;2.57;;;2.47;;
9524;SDS011;15940;48.734;9.112;2023-04-29T00:04:06;2.67;;;2.47;;
9524;SDS011;15940;48.734;9.112;2023-04-29T00:06:33;2.60;;;2.40;;
9524;SDS011;15940;48.734;9.112;2023-04-29T00:09:00;3.27;;;2.50;;
9524;SDS011;15940;48.734;9.112;2023-04-29T00:11:28;2.97;;;2.70;;
9524;SDS011;15940;48.734;9.112;2023-04-29T00:13:55;2.50;;;2.40;;
9524;SDS011;15940;48.734;9.112;2023-04-29T00:16:22;3.63;;;2.80;;
9524;SDS011;15940;48.734;9.112;2023-04-29T00:18:50;2.90;;;2.70;;
9524;SDS011;15940;48.734;9.112;2023-04-29T00:21:17;3.10;;;2.60;;
9524;SDS011;15940;48.734;9.112;2023-04-29T00:23:44;3.47;;;2.37;;
9524;SDS011;15940;48.734;9.112;2023-04-29T00:26:11;4.10;;;2.40;;
9524;SDS011;15940;48.734;9.112;2023-04-29T00:28:38;3.07;;;2.57;;
9524;SDS011;15940;48.734;9.112;2023-04-29T00:33:31;2.57;;;2.47;;
9524;SDS011;15940;48.734;9.112;2023-04-29T00:35:58;2.73;;;2.50;;
9524;SDS011;15940;48.734;9.112;2023-04-29T00:38:26;2.73;;;2.43;;
9524;SDS011;15940;48.734;9.112;2023-04-29T00:40:53;4.03;;;2.30;;
9524;SDS011;15940;48.734;9.112;2023-04-29T00:43:20;2.80;;;2.60;;
9524;SDS011;15940;48.734;9.112;2023-04-29T00:45:48;2.80;;;2.60;;
9524;SDS011;15940;48.734;9.112;2023-04-29T00:48:15;2.50;;;2.30;;
9524;SDS011;15940;48.734;9.112;2023-04-29T00:50:43;2.80;;;2.30;;
9524;SDS011;15940;48.734;9.112;2023-04-29T00:53:10;2.63;;;2.43;;
9524;SDS011;15940;48.734;9.112;2023-04-29T00:55:38;2.23;;;2.13;;
9524;SDS011;15940;48.734;9.112;2023-04-29T00:58:06;3.00;;;2.60;;
9524;SDS011;15940;48.734;9.112;2023-04-29T01:00:34;3.43;;;2.63;;
9524;SDS011;15940;48.734;9.112;2023-04-29T01:03:01;3.10;;;2.80;;
9524;SDS011;15940;48.734;9.112;2023-04-29T01:05:28;3.13;;;2.23;;
9524;SDS011;15940;48.734;9.112;2023-04-29T01:08:05;2.90;;;2.60;;
9524;SDS011;15940;48.734;9.112;2023-04-29T01:10:48;2.90;;;2.70;;
9524;SDS011;15940;48.734;9.112;2023-04-29T01:13:25;2.63;;;2.43;;
9524;SDS011;15940;48.734;9.112;2023-04-29T01:15:58;2.80;;;2.60;;
9524;SDS011;15940;48.734;9.112;2023-04-29T01:18:28;2.77;;;2.57;;
9524;SDS011;15940;48.734;9.112;2023-04-29T01:21:01;4.57;;;2.60;;
9524;SDS011;15940;48.734;9.112;2023-04-29T01:23:30;2.80;;;2.60;;
9524;SDS011;15940;48.734;9.112;2023-04-29T01:25:57;2.53;;;2.30;;
9524;SDS011;15940;48.734;9.112;2023-04-29T01:28:33;5.23;;;2.70;;
9524;SDS011;15940;48.734;9.112;2023-04-29T01:31:13;2.47;;;2.37;;
9524;SDS011;15940;48.734;9.112;2023-04-29T01:33:46;2.87;;;2.53;;
9524;SDS011;15940;48.734;9.112;2023-04-29T01:36:25;4.17;;;2.67;;
9524;SDS011;15940;48.734;9.112;2023-04-29T01:39:05;2.57;;;2.37;;
9524;SDS011;15940;48.734;9.112;2023-04-29T01:41:42;2.90;;;2.70;;
9524;SDS011;15940;48.734;9.112;2023-04-29T01:44:13;2.77;;;2.57;;
9524;SDS011;15940;48.734;9.112;2023-04-29T01:46:42;4.07;;;2.60;;
9524;SDS011;15940;48.734;9.112;2023-04-29T01:49:14;2.47;;;2.37;;
9524;SDS011;15940;48.734;9.112;2023-04-29T01:51:44;3.63;;;2.37;;
9524;SDS011;15940;48.734;9.112;2023-04-29T01:54:13;3.77;;;2.70;;
9524;SDS011;15940;48.734;9.112;2023-04-29T01:56:40;3.80;;;2.57;;
9524;SDS011;15940;48.734;9.112;2023-04-29T01:59:07;3.20;;;2.80;;
9524;SDS011;15940;48.734;9.112;2023-04-29T02:01:34;2.70;;;2.50;;
9524;SDS011;15940;48.734;9.112;2023-04-29T02:04:02;2.70;;;2.50;;
9524;SDS011;15940;48.734;9.112;2023-04-29T02:06:29;2.77;;;2.57;;
9524;SDS011;15940;48.734;9.112;2023-04-29T02:08:57;2.50;;;2.30;;
9524;SDS011;15940;48.734;9.112;2023-04-29T02:11:25;2.77;;;2.53;;
9524;SDS011;15940;48.734;9.112;2023-04-29T02:13:52;2.60;;;2.50;;
9524;SDS011;15940;48.734;9.112;2023-04-29T02:16:20;2.57;;;2.47;;
9524;SDS011;15940;48.734;9.112;2023-04-29T02:18:48;3.03;;;2.80;;
9524;SDS011;15940;48.734;9.112;2023-04-29T02:21:15;2.63;;;2.33;;
9524;SDS011;15940;48.734;9.112;2023-04-29T02:23:42;3.23;;;2.63;;
9524;SDS011;15940;48.734;9.112;2023-04-29T02:26:08;3.20;;;2.77;;
9524;SDS011;15940;48.734;9.112;2023-04-29T02:28:37;2.93;;;2.73;;
9524;SDS011;15940;48.734;9.112;2023-04-29T02:31:04;2.70;;;2.60;;
9524;SDS011;15940;48.734;9.112;2023-04-29T02:33:31;5.03;;;2.90;;
9524;SDS011;15940;48.734;9.112;2023-04-29T02:35:58;3.00;;;2.73;;
9524;SDS011;15940;48.734;9.112;2023-04-29T02:38:25;3.23;;;2.90;;
9524;SDS011;15940;48.734;9.112;2023-04-29T02:40:52;4.57;;;2.70;;
9524;SDS011;15940;48.734;9.112;2023-04-29T02:43:19;4.13;;;2.70;;
9524;SDS011;15940;48.734;9.112;2023-04-29T02:45:47;2.90;;;2.70;;
9524;SDS011;15940;48.734;9.112;2023-04-29T02:48:14;3.13;;;2.93;;
9524;SDS011;15940;48.734;9.112;2023-04-29T02:50:41;5.57;;;2.90;;
9524;SDS011;15940;48.734;9.112;2023-04-29T02:53:08;4.50;;;3.10;;
9524;SDS011;15940;48.734;9.112;2023-04-29T02:55:35;3.00;;;2.80;;
9524;SDS011;15940;48.734;9.112;2023-04-29T02:58:02;3.40;;;3.10;;
9524;SDS011;15940;48.734;9.112;2023-04-29T03:00:28;3.30;;;3.00;;
9524;SDS011;15940;48.734;9.112;2023-04-29T03:02:57;4.63;;;3.00;;
9524;SDS011;15940;48.734;9.112;2023-04-29T03:05:24;3.40;;;2.90;;
9524;SDS011;15940;48.734;9.112;2023-04-29T03:07:50;3.97;;;3.10;;
9524;SDS011;15940;48.734;9.112;2023-04-29T03:10:17;2.93;;;2.73;;
9524;SDS011;15940;48.734;9.112;2023-04-29T03:12:44;3.43;;;3.03;;
9524;SDS011;15940;48.734;9.112;2023-04-29T03:15:11;5.10;;;3.10;;
9524;SDS011;15940;48.734;9.112;2023-04-29T03:17:39;3.60;;;2.93;;
9524;SDS011;15940;48.734;9.112;2023-04-29T03:20:08;3.10;;;2.90;;
9524;SDS011;15940;48.734;9.112;2023-04-29T03:24:55;3.30;;;3.00;;
9524;SDS011;15940;48.734;9.112;2023-04-29T03:27:22;3.43;;;3.10;;
9524;SDS011;15940;48.734;9.112;2023-04-29T03:29:49;5.07;;;3.20;;
9524;SDS011;15940;48.734;9.112;2023-04-29T03:32:15;3.57;;;3.27;;
9524;SDS011;15940;48.734;9.112;2023-04-29T03:34:42;3.27;;;2.90;;
9524;SDS011;15940;48.734;9.112;2023-04-29T03:37:09;3.60;;;3.27;;
9524;SDS011;15940;48.734;9.112;2023-04-29T03:39:36;3.70;;;3.40;;
9524;SDS011;15940;48.734;9.112;2023-04-29T03:42:05;3.60;;;3.30;;
9524;SDS011;15940;48.734;9.112;2023-04-29T03:44:32;3.53;;;3.23;;
9524;SDS011;15940;48.734;9.112;2023-04-29T03:46:58;3.53;;;3.33;;
9524;SDS011;15940;48.734;9.112;2023-04-29T03:49:25;5.67;;;3.30;;
9524;SDS011;15940;48.734;9.112;2023-04-29T03:51:52;4.23;;;3.03;;
9524;SDS011;15940;48.734;9.112;2023-04-29T03:54:19;3.80;;;3.10;;
9524;SDS011;15940;48.734;9.112;2023-04-29T03:56:46;3.53;;;3.23;;
9524;SDS011;15940;48.734;9.112;2023-04-29T03:59:14;3.80;;;3.50;;
9524;SDS011;15940;48.734;9.112;2023-04-29T04:01:41;3.40;;;3.20;;
9524;SDS011;15940;48.734;9.112;2023-04-29T04:04:08;3.80;;;3.33;;
9524;SDS011;15940;48.734;9.112;2023-04-29T04:06:35;3.40;;;3.10;;
9524;SDS011;15940;48.734;9.112;2023-04-29T04:09:03;3.47;;;3.17;;
9524;SDS011;15940;48.734;9.112;2023-04-29T04:11:30;3.80;;;3.50;;
9524;SDS011;15940;48.734;9.112;2023-04-29T04:13:57;6.63;;;3.43;;
9524;SDS011;15940;48.734;9.112;2023-04-29T04:16:25;4.47;;;3.10;;
9524;SDS011;15940;48.734;9.112;2023-04-29T04:18:52;3.10;;;2.90;;
9524;SDS011;15940;48.734;9.112;2023-04-29T04:21:19;4.53;;;3.20;;
9524;SDS011;15940;48.734;9.112;2023-04-29T04:23:46;3.40;;;3.20;;
9524;SDS011;15940;48.734;9.112;2023-04-29T04:26:13;3.23;;;2.93;;
9524;SDS011;15940;48.734;9.112;2023-04-29T04:28:40;4.03;;;3.03;;
9524;SDS011;15940;48.734;9.112;2023-04-29T04:31:06;3.53;;;3.20;;
9524;SDS011;15940;48.734;9.112;2023-04-29T04:33:35;3.50;;;3.20;;
9524;SDS011;15940;48.734;9.112;2023-04-29T04:36:02;3.17;;;2.90;;
9524;SDS011;15940;48.734;9.112;2023-04-29T04:38:29;3.40;;;3.10;;
9524;SDS011;15940;48.734;9.112;2023-04-29T04:40:57;3.37;;;3.17;;
9524;SDS011;15940;48.734;9.112;2023-04-29T04:43:24;3.50;;;3.20;;
9524;SDS011;15940;48.734;9.112;2023-04-29T04:45:51;3.43;;;3.23;;
9524;SDS011;15940;48.734;9.112;2023-04-29T04:48:18;3.27;;;3.07;;
9524;SDS011;15940;48.734;9.112;2023-04-29T04:50:46;3.40;;;3.20;;
9524;SDS011;15940;48.734;9.112;2023-04-29T04:53:13;4.57;;;3.10;;
9524;SDS011;15940;48.734;9.112;2023-04-29T04:55:41;5.37;;;3.53;;
9524;SDS011;15940;48.734;9.112;2023-04-29T04:58:08;3.40;;;3.20;;
9524;SDS011;15940;48.734;9.112;2023-04-29T05:00:35;3.40;;;3.10;;
9524;SDS011;15940;48.734;9.112;2023-04-29T05:03:02;3.30;;;3.10;;
9524;SDS011;15940;48.734;9.112;2023-04-29T05:05:29;3.27;;;2.97;;
9524;SDS011;15940;48.734;9.112;2023-04-29T05:08:00;4.87;;;3.30;;
9524;SDS011;15940;48.734;9.112;2023-04-29T05:10:27;3.93;;;3.63;;
9524;SDS011;15940;48.734;9.112;2023-04-29T05:12:53;3.67;;;3.37;;
9524;SDS011;15940;48.734;9.112;2023-04-29T05:15:21;3.20;;;3.00;;
9524;SDS011;15940;48.734;9.112;2023-04-29T05:17:48;5.07;;;3.60;;
9524;SDS011;15940;48.734;9.112;2023-04-29T05:20:15;3.87;;;3.60;;
9524;SDS011;15940;48.734;9.112;2023-04-29T05:22:42;3.40;;;3.20;;
9524;SDS011;15940;48.734;9.112;2023-04-29T05:25:10;4.47;;;3.43;;
9524;SDS011;15940;48.734;9.112;2023-04-29T05:27:37;3.80;;;3.20;;
9524;SDS011;15940;48.734;9.112;2023-04-29T05:30:04;4.50;;;3.67;;
9524;SDS011;15940;48.734;9.112;2023-04-29T05:32:32;3.73;;;3.50;;
9524;SDS011;15940;48.734;9.112;2023-04-29T05:34:59;4.30;;;3.37;;
9524;SDS011;15940;48.734;9.112;2023-04-29T05:37:26;3.60;;;3.40;;
9524;SDS011;15940;48.734;9.112;2023-04-29T05:39:55;3.70;;;3.40;;
9524;SDS011;15940;48.734;9.112;2023-04-29T05:42:24;4.90;;;3.63;;
9524;SDS011;15940;48.734;9.112;2023-04-29T05:44:51;4.17;;;3.67;;
9524;SDS011;15940;48.734;9.112;2023-04-29T05:47:18;4.80;;;3.93;;
9524;SDS011;15940;48.734;9.112;2023-04-29T05:49:45;6.07;;;3.90;;
9524;SDS011;15940;48.734;9.112;2023-04-29T05:52:13;4.03;;;3.60;;
9524;SDS011;15940;48.734;9.112;2023-04-29T05:54:40;4.10;;;3.80;;
9524;SDS011;15940;48.734;9.112;2023-04-29T05:57:06;4.07;;;3.77;;
9524;SDS011;15940;48.734;9.112;2023-04-29T05:59:35;3.93;;;3.63;;
9524;SDS011;15940;48.734;9.112;2023-04-29T06:02:02;4.13;;;3.87;;
9524;SDS011;15940;48.734;9.112;2023-04-29T06:04:29;4.07;;;3.77;;
9524;SDS011;15940;48.734;9.112;2023-04-29T06:06:55;4.07;;;3.77;;
9524;SDS011;15940;48.734;9.112;2023-04-29T06:09:22;3.97;;;3.70;;
9524;SDS011;15940;48.734;9.112;2023-04-29T06:11:50;4.23;;;3.73;;
9524;SDS011;15940;48.734;9.112;2023-04-29T06:14:17;3.90;;;3.70;;
9524;SDS011;15940;48.734;9.112;2023-04-29T06:16:46;5.30;;;3.60;;
9524;SDS011;15940;48.734;9.112;2023-04-29T06:19:13;3.63;;;3.33;;
9524;SDS011;15940;48.734;9.112;2023-04-29T06:21:40;3.77;;;3.47;;
9524;SDS011;15940;48.734;9.112;2023-04-29T06:24:07;3.73;;;3.33;;
9524;SDS011;15940;48.734;9.112;2023-04-29T06:26:34;3.33;;;3.03;;
9524;SDS011;15940;48.734;9.112;2023-04-29T06:29:01;3.73;;;3.37;;
9524;SDS011;15940;48.734;9.112;2023-04-29T06:31:28;4.07;;;3.50;;
9524;SDS011;15940;48.734;9.112;2023-04-29T06:33:56;4.20;;;3.90;;
9524;SDS011;15940;48.734;9.112;2023-04-29T06:36:23;4.50;;;4.10;;
9524;SDS011;15940;48.734;9.112;2023-04-29T06:38:51;5.20;;;4.20;;
9524;SDS011;15940;48.734;9.112;2023-04-29T06:41:18;3.60;;;3.40;;
9524;SDS011;15940;48.734;9.112;2023-04-29T06:43:45;4.27;;;3.97;;
9524;SDS011;15940;48.734;9.112;2023-04-29T06:46:12;3.50;;;3.20;;
9524;SDS011;15940;48.734;9.112;2023-04-29T06:48:39;3.43;;;3.23;;
9524;SDS011;15940;48.734;9.112;2023-04-29T06:51:07;3.53;;;3.23;;
9524;SDS011;15940;48.734;9.112;2023-04-29T06:53:34;3.97;;;3.33;;
9524;SDS011;15940;48.734;9.112;2023-04-29T06:56:01;3.30;;;3.10;;
9524;SDS011;15940;48.734;9.112;2023-04-29T06:58:28;3.90;;;3.50;;
9524;SDS011;15940;48.734;9.112;2023-04-29T07:00:55;3.70;;;3.50;;
9524;SDS011;15940;48.734;9.112;2023-04-29T07:03:22;3.77;;;3.40;;
9524;SDS011;15940;48.734;9.112;2023-04-29T07:05:49;3.80;;;3.50;;
9524;SDS011;15940;48.734;9.112;2023-04-29T07:08:17;3.77;;;3.00;;
9524;SDS011;15940;48.734;9.112;2023-04-29T07:10:52;3.40;;;3.20;;
9524;SDS011;15940;48.734;9.112;2023-04-29T07:13:20;3.10;;;2.90;;
9524;SDS011;15940;48.734;9.112;2023-04-29T07:15:47;3.40;;;3.10;;
9524;SDS011;15940;48.734;9.112;2023-04-29T07:18:14;3.47;;;3.10;;
9524;SDS011;15940;48.734;9.112;2023-04-29T07:20:41;2.80;;;2.60;;
9524;SDS011;15940;48.734;9.112;2023-04-29T07:23:08;2.70;;;2.60;;
9524;SDS011;15940;48.734;9.112;2023-04-29T07:25:37;3.23;;;3.00;;
9524;SDS011;15940;48.734;9.112;2023-04-29T07:28:04;2.77;;;2.57;;
9524;SDS011;15940;48.734;9.112;2023-04-29T07:30:32;2.50;;;2.20;;
9524;SDS011;15940;48.734;9.112;2023-04-29T07:32:59;2.40;;;2.30;;
9524;SDS011;15940;48.734;9.112;2023-04-29T07:35:26;1.70;;;1.60;;
9524;SDS011;15940;48.734;9.112;2023-04-29T07:37:53;2.20;;;1.70;;
9524;SDS011;15940;48.734;9.112;2023-04-29T07:40:21;2.13;;;1.70;;
9524;SDS011;15940;48.734;9.112;2023-04-29T07:42:50;3.50;;;2.00;;
9524;SDS011;15940;48.734;9.112;2023-04-29T07:45:17;2.10;;;1.90;;
9524;SDS011;15940;48.734;9.112;2023-04-29T07:47:44;2.47;;;2.00;;
9524;SDS011;15940;48.734;9.112;2023-04-29T07:50:11;2.03;;;1.93;;
9524;SDS011;15940;48.734;9.112;2023-04-29T07:52:38;4.97;;;2.23;;
9524;SDS011;15940;48.734;9.112;2023-04-29T07:55:05;1.90;;;1.80;;
9524;SDS011;15940;48.734;9.112;2023-04-29T07:57:33;1.90;;;1.80;;
9524;SDS011;15940;48.734;9.112;2023-04-29T08:00:02;2.73;;;1.60;;
9524;SDS011;15940;48.734;9.112;2023-04-29T08:02:30;3.27;;;2.00;;
9524;SDS011;15940;48.734;9.112;2023-04-29T08:04:57;2.10;;;2.00;;
9524;SDS011;15940;48.734;9.112;2023-04-29T08:07:24;1.90;;;1.80;;
9524;SDS011;15940;48.734;9.112;2023-04-29T08:09:51;2.33;;;1.57;;
9524;SDS011;15940;48.734;9.112;2023-04-29T08:12:18;1.90;;;1.63;;
9524;SDS011;15940;48.734;9.112;2023-04-29T08:14:45;4.87;;;1.80;;
9524;SDS011;15940;48.734;9.112;2023-04-29T08:17:13;3.07;;;1.83;;
9524;SDS011;15940;48.734;9.112;2023-04-29T08:19:40;1.60;;;1.50;;
9524;SDS011;15940;48.734;9.112;2023-04-29T08:22:07;1.50;;;1.40;;
9524;SDS011;15940;48.734;9.112;2023-04-29T08:24:35;2.17;;;1.30;;
9524;SDS011;15940;48.734;9.112;2023-04-29T08:27:02;1.50;;;1.50;;
9524;SDS011;15940;48.734;9.112;2023-04-29T08:29:29;1.57;;;1.57;;
9524;SDS011;15940;48.734;9.112;2023-04-29T08:31:58;1.73;;;1.40;;
9524;SDS011;15940;48.734;9.112;2023-04-29T08:34:26;1.30;;;1.30;;
9524;SDS011;15940;48.734;9.112;2023-04-29T08:36:53;1.70;;;1.60;;
9524;SDS011;15940;48.734;9.112;2023-04-29T08:39:22;3.17;;;1.43;;
9524;SDS011;15940;48.734;9.112;2023-04-29T08:41:49;2.40;;;1.67;;
9524;SDS011;15940;48.734;9.112;2023-04-29T08:44:17;5.00;;;2.10;;
9524;SDS011;15940;48.734;9.112;2023-04-29T08:46:45;1.90;;;1.80;;
9524;SDS011;15940;48.734;9.112;2023-04-29T08:49:13;1.77;;;1.67;;
9524;SDS011;15940;48.734;9.112;2023-04-29T08:51:41;2.03;;;1.70;;
9524;SDS011;15940;48.734;9.112;2023-04-29T08:54:08;2.27;;;1.57;;
9524;SDS011;15940;48.734;9.112;2023-04-29T08:56:36;1.83;;;1.70;;
9524;SDS011;15940;48.734;9.112;2023-04-29T08:59:04;1.57;;;1.50;;
9524;SDS011;15940;48.734;9.112;2023-04-29T09:01:35;2.00;;;1.90;;
9524;SDS011;15940;48.734;9.112;2023-04-29T09:04:07;6.40;;;1.90;;
9524;SDS011;15940;48.734;9.112;2023-04-29T09:06:42;1.67;;;1.57;;
9524;SDS011;15940;48.734;9.112;2023-04-29T09:09:09;3.03;;;1.80;;
9524;SDS011;15940;48.734;9.112;2023-04-29T09:11:38;2.17;;;2.07;;
9524;SDS011;15940;48.734;9.112;2023-04-29T09:14:06;1.93;;;1.83;;
9524;SDS011;15940;48.734;9.112;2023-04-29T09:16:33;3.00;;;2.10;;
9524;SDS011;15940;48.734;9.112;2023-04-29T09:19:02;2.90;;;2.20;;
9524;SDS011;15940;48.734;9.112;2023-04-29T09:21:29;2.40;;;2.20;;
9524;SDS011;15940;48.734;9.112;2023-04-29T09:23:58;3.30;;;2.10;;
9524;SDS011;15940;48.734;9.112;2023-04-29T09:26:32;2.37;;;2.17;;
9524;SDS011;15940;48.734;9.112;2023-04-29T09:29:07;2.27;;;2.07;;
9524;SDS011;15940;48.734;9.112;2023-04-29T09:31:36;2.30;;;2.10;;
9524;SDS011;15940;48.734;9.112;2023-04-29T09:34:04;2.10;;;2.00;;
9524;SDS011;15940;48.734;9.112;2023-04-29T09:36:38;2.10;;;2.00;;
9524;SDS011;15940;48.734;9.112;2023-04-29T09:39:10;2.00;;;1.90;;
9524;SDS011;15940;48.734;9.112;2023-04-29T09:41:41;2.00;;;1.90;;
9524;SDS011;15940;48.734;9.112;2023-04-29T09:44:24;1.57;;;1.57;;
9524;SDS011;15940;48.734;9.112;2023-04-29T09:46:53;2.50;;;2.30;;
9524;SDS011;15940;48.734;9.112;2023-04-29T09:49:22;1.93;;;1.83;;
9524;SDS011;15940;48.734;9.112;2023-04-29T09:51:51;2.13;;;2.03;;
9524;SDS011;15940;48.734;9.112;2023-04-29T09:54:22;2.10;;;1.90;;
9524;SDS011;15940;48.734;9.112;2023-04-29T09:56:50;2.47;;;2.23;;
9524;SDS011;15940;48.734;9.112;2023-04-29T09:59:18;3.00;;;2.00;;
9524;SDS011;15940;48.734;9.112;2023-04-29T10:01:49;2.50;;;2.00;;
9524;SDS011;15940;48.734;9.112;2023-04-29T10:04:18;1.77;;;1.67;;
9524;SDS011;15940;48.734;9.112;2023-04-29T10:06:48;2.23;;;2.10;;
9524;SDS011;15940;48.734;9.112;2023-04-29T10:09:18;2.10;;;1.90;;
9524;SDS011;15940;48.734;9.112;2023-04-29T10:11:47;1.80;;;1.70;;
9524;SDS011;15940;48.734;9.112;2023-04-29T10:14:16;2.10;;;2.00;;
9524;SDS011;15940;48.734;9.112;2023-04-29T10:16:45;2.70;;;1.70;;
9524;SDS011;15940;48.734;9.112;2023-04-29T10:19:17;2.30;;;1.70;;
9524;SDS011;15940;48.734;9.112;2023-04-29T10:21:50;2.00;;;1.80;;
9524;SDS011;15940;48.734;9.112;2023-04-29T10:24:20;2.00;;;1.90;;
9524;SDS011;15940;48.734;9.112;2023-04-29T10:26:49;1.80;;;1.70;;
9524;SDS011;15940;48.734;9.112;2023-04-29T10:29:18;2.33;;;1.97;;
9524;SDS011;15940;48.734;9.112;2023-04-29T10:31:48;2.00;;;1.90;;
9524;SDS011;15940;48.734;9.112;2023-04-29T10:34:16;1.57;;;1.50;;
9524;SDS011;15940;48.734;9.112;2023-04-29T10:36:44;2.00;;;1.67;;
9524;SDS011;15940;48.734;9.112;2023-04-29T10:39:16;1.70;;;1.60;;
9524;SDS011;15940;48.734;9.112;2023-04-29T10:42:02;1.80;;;1.70;;
9524;SDS011;15940;48.734;9.112;2023-04-29T10:48:07;2.30;;;2.10;;
9524;SDS011;15940;48.734;9.112;2023-04-29T10:50:39;1.70;;;1.60;;
9524;SDS011;15940;48.734;9.112;2023-04-29T10:53:28;1.67;;;1.57;;
9524;SDS011;15940;48.734;9.112;2023-04-29T10:55:56;2.07;;;1.67;;
9524;SDS011;15940;48.734;9.112;2023-04-29T10:58:34;6.40;;;1.90;;
9524;SDS011;15940;48.734;9.112;2023-04-29T11:01:04;3.20;;;2.23;;
9524;SDS011;15940;48.734;9.112;2023-04-29T11:03:47;1.93;;;1.80;;
9524;SDS011;15940;48.734;9.112;2023-04-29T11:06:22;2.13;;;2.00;;
9524;SDS011;15940;48.734;9.112;2023-04-29T11:09:00;2.17;;;1.97;;
9524;SDS011;15940;48.734;9.112;2023-04-29T11:11:39;2.40;;;2.20;;
9524;SDS011;15940;48.734;9.112;2023-04-29T11:14:12;2.63;;;2.20;;
9524;SDS011;15940;48.734;9.112;2023-04-29T11:16:47;2.83;;;2.63;;
9524;SDS011;15940;48.734;9.112;2023-04-29T11:19:17;2.30;;;2.20;;
9524;SDS011;15940;48.734;9.112;2023-04-29T11:21:45;3.17;;;2.70;;
9524;SDS011;15940;48.734;9.112;2023-04-29T11:24:12;1.97;;;1.87;;
9524;SDS011;15940;48.734;9.112;2023-04-29T11:26:43;5.10;;;2.40;;
9524;SDS011;15940;48.734;9.112;2023-04-29T11:29:10;2.00;;;1.90;;
9524;SDS011;15940;48.734;9.112;2023-04-29T11:31:38;1.90;;;1.80;;
9524;SDS011;15940;48.734;9.112;2023-04-29T11:34:05;2.30;;;2.10;;
9524;SDS011;15940;48.734;9.112;2023-04-29T11:36:33;2.30;;;2.00;;
9524;SDS011;15940;48.734;9.112;2023-04-29T11:39:01;2.30;;;2.10;;
9524;SDS011;15940;48.734;9.112;2023-04-29T11:41:29;2.00;;;1.90;;
9524;SDS011;15940;48.734;9.112;2023-04-29T11:43:57;1.97;;;1.60;;
9524;SDS011;15940;48.734;9.112;2023-04-29T11:46:25;4.50;;;2.33;;
9524;SDS011;15940;48.734;9.112;2023-04-29T11:48:57;1.90;;;1.80;;
9524;SDS011;15940;48.734;9.112;2023-04-29T11:51:25;3.93;;;2.23;;
9524;SDS011;15940;48.734;9.112;2023-04-29T11:53:52;1.40;;;1.30;;
9524;SDS011;15940;48.734;9.112;2023-04-29T11:56:20;1.20;;;1.20;;
9524;SDS011;15940;48.734;9.112;2023-04-29T11:58:49;2.13;;;1.50;;
9524;SDS011;15940;48.734;9.112;2023-04-29T12:01:20;1.70;;;1.60;;
9524;SDS011;15940;48.734;9.112;2023-04-29T12:03:47;2.03;;;1.80;;
9524;SDS011;15940;48.734;9.112;2023-04-29T12:06:16;1.50;;;1.50;;
9524;SDS011;15940;48.734;9.112;2023-04-29T12:08:45;2.40;;;1.60;;
9524;SDS011;15940;48.734;9.112;2023-04-29T12:11:12;2.47;;;2.27;;
9524;SDS011;15940;48.734;9.112;2023-04-29T12:13:39;2.80;;;2.60;;
9524;SDS011;15940;48.734;9.112;2023-04-29T12:16:07;3.10;;;2.87;;
9524;SDS011;15940;48.734;9.112;2023-04-29T12:18:35;5.10;;;3.17;;
9524;SDS011;15940;48.734;9.112;2023-04-29T12:21:03;3.03;;;2.83;;
9524;SDS011;15940;48.734;9.112;2023-04-29T12:23:32;4.33;;;3.80;;
9524;SDS011;15940;48.734;9.112;2023-04-29T12:26:01;3.13;;;2.80;;
9524;SDS011;15940;48.734;9.112;2023-04-29T12:28:29;4.03;;;3.73;;
9524;SDS011;15940;48.734;9.112;2023-04-29T12:30:57;4.97;;;4.47;;
9524;SDS011;15940;48.734;9.112;2023-04-29T12:33:26;5.50;;;4.07;;
9524;SDS011;15940;48.734;9.112;2023-04-29T12:35:55;4.07;;;3.77;;
9524;SDS011;15940;48.734;9.112;2023-04-29T12:38:24;4.60;;;4.20;;
9524;SDS011;15940;48.734;9.112;2023-04-29T12:40:54;4.37;;;3.93;;
9524;SDS011;15940;48.734;9.112;2023-04-29T12:43:25;3.77;;;3.47;;
9524;SDS011;15940;48.734;9.112;2023-04-29T12:45:53;3.83;;;3.33;;
9524;SDS011;15940;48.734;9.112;2023-04-29T12:48:20;4.80;;;4.40;;
9524;SDS011;15940;48.734;9.112;2023-04-29T12:50:54;6.17;;;4.30;;
9524;SDS011;15940;48.734;9.112;2023-04-29T12:53:22;5.40;;;4.87;;
9524;SDS011;15940;48.734;9.112;2023-04-29T12:55:49;5.10;;;4.50;;
9524;SDS011;15940;48.734;9.112;2023-04-29T12:58:18;4.73;;;4.33;;
9524;SDS011;15940;48.734;9.112;2023-04-29T13:00:45;4.70;;;4.30;;
9524;SDS011;15940;48.734;9.112;2023-04-29T13:05:42;5.30;;;4.80;;
9524;SDS011;15940;48.734;9.112;2023-04-29T13:08:12;5.00;;;4.60;;
9524;SDS011;15940;48.734;9.112;2023-04-29T13:10:39;4.73;;;4.00;;
9524;SDS011;15940;48.734;9.112;2023-04-29T13:13:06;4.77;;;4.33;;
9524;SDS011;15940;48.734;9.112;2023-04-29T13:15:34;4.20;;;3.90;;
9524;SDS011;15940;48.734;9.112;2023-04-29T13:18:03;4.33;;;3.77;;
9524;SDS011;15940;48.734;9.112;2023-04-29T13:20:30;4.60;;;4.20;;
9524;SDS011;15940;48.734;9.112;2023-04-29T13:22:59;4.87;;;4.37;;
9524;SDS011;15940;48.734;9.112;2023-04-29T13:25:26;4.50;;;4.10;;
9524;SDS011;15940;48.734;9.112;2023-04-29T13:27:53;5.30;;;4.80;;
9524;SDS011;15940;48.734;9.112;2023-04-29T13:30:20;4.97;;;4.30;;
9524;SDS011;15940;48.734;9.112;2023-04-29T13:32:46;4.70;;;4.30;;
9524;SDS011;15940;48.734;9.112;2023-04-29T13:35:13;5.00;;;4.43;;
9524;SDS011;15940;48.734;9.112;2023-04-29T13:37:40;4.87;;;4.47;;
9524;SDS011;15940;48.734;9.112;2023-04-29T13:40:10;5.03;;;4.63;;
9524;SDS011;15940;48.734;9.112;2023-04-29T13:42:37;5.17;;;4.67;;
9524;SDS011;15940;48.734;9.112;2023-04-29T13:45:04;6.70;;;5.17;;
9524;SDS011;15940;48.734;9.112;2023-04-29T13:47:32;6.40;;;5.80;;
9524;SDS011;15940;48.734;9.112;2023-04-29T13:50:00;5.20;;;4.80;;
9524;SDS011;15940;48.734;9.112;2023-04-29T13:52:27;5.83;;;5.20;;
9524;SDS011;15940;48.734;9.112;2023-04-29T13:54:55;6.33;;;5.17;;
9524;SDS011;15940;48.734;9.112;2023-04-29T13:57:23;6.13;;;5.53;;
9524;SDS011;15940;48.734;9.112;2023-04-29T13:59:51;6.67;;;5.77;;
9524;SDS011;15940;48.734;9.112;2023-04-29T14:02:19;6.50;;;5.90;;
9524;SDS011;15940;48.734;9.112;2023-04-29T14:04:46;6.57;;;5.97;;
9524;SDS011;15940;48.734;9.112;2023-04-29T14:07:13;6.43;;;5.67;;
9524;SDS011;15940;48.734;9.112;2023-04-29T14:09:40;6.00;;;5.43;;
9524;SDS011;15940;48.734;9.112;2023-04-29T14:12:07;7.87;;;5.90;;
9524;SDS011;15940;48.734;9.112;2023-04-29T14:14:36;6.63;;;6.00;;
9524;SDS011;15940;48.734;9.112;2023-04-29T14:17:02;6.90;;;6.30;;
9524;SDS011;15940;48.734;9.112;2023-04-29T14:19:30;6.47;;;5.87;;
9524;SDS011;15940;48.734;9.112;2023-04-29T14:21:57;5.87;;;5.37;;
9524;SDS011;15940;48.734;9.112;2023-04-29T14:24:23;6.30;;;5.80;;
9524;SDS011;15940;48.734;9.112;2023-04-29T14:26:50;7.00;;;6.20;;
9524;SDS011;15940;48.734;9.112;2023-04-29T14:29:18;6.57;;;5.97;;
9524;SDS011;15940;48.734;9.112;2023-04-29T14:31:47;6.63;;;5.93;;
9524;SDS011;15940;48.734;9.112;2023-04-29T14:34:14;6.73;;;6.07;;
9524;SDS011;15940;48.734;9.112;2023-04-29T14:36:41;6.63;;;5.93;;
9524;SDS011;15940;48.734;9.112;2023-04-29T14:39:08;7.17;;;6.47;;
9524;SDS011;15940;48.734;9.112;2023-04-29T14:41:35;8.07;;;6.80;;
9524;SDS011;15940;48.734;9.112;2023-04-29T14:44:02;7.17;;;6.43;;
9524;SDS011;15940;48.734;9.112;2023-04-29T14:46:30;7.67;;;6.87;;
9524;SDS011;15940;48.734;9.112;2023-04-29T14:48:58;8.27;;;7.50;;
9524;SDS011;15940;48.734;9.112;2023-04-29T14:51:25;8.13;;;7.23;;
9524;SDS011;15940;48.734;9.112;2023-04-29T14:53:53;8.93;;;8.03;;
9524;SDS011;15940;48.734;9.112;2023-04-29T14:56:20;8.60;;;7.70;;
9524;SDS011;15940;48.734;9.112;2023-04-29T14:58:47;7.60;;;6.93;;
9524;SDS011;15940;48.734;9.112;2023-04-29T15:01:14;9.30;;;7.23;;
9524;SDS011;15940;48.734;9.112;2023-04-29T15:03:41;8.10;;;7.30;;
9524;SDS011;15940;48.734;9.112;2023-04-29T15:06:09;8.03;;;7.23;;
9524;SDS011;15940;48.734;9.112;2023-04-29T15:08:37;7.43;;;6.73;;
9524;SDS011;15940;48.734;9.112;2023-04-29T15:11:04;8.40;;;7.50;;
9524;SDS011;15940;48.734;9.112;2023-04-29T15:13:31;7.87;;;7.17;;
9524;SDS011;15940;48.734;9.112;2023-04-29T15:15:58;9.17;;;8.27;;
9524;SDS011;15940;48.734;9.112;2023-04-29T15:18:25;8.70;;;7.80;;